createdAt,value
2023-04-17T00:00:21.941Z,25.85
2023-04-17T00:02:48.959Z,26.32
2023-04-17T00:05:16.224Z,26.43
2023-04-17T00:07:43.179Z,25.88
2023-04-17T00:10:11.541Z,26.17
2023-04-17T00:12:38.630Z,26.18
2023-04-17T00:15:06.091Z,25.79
2023-04-17T00:17:33.026Z,25.51
2023-04-17T00:19:59.924Z,26.01
2023-04-17T00:22:26.807Z,25.87
2023-04-17T00:24:53.768Z,26.22
2023-04-17T00:27:20.648Z,25.88
2023-04-17T00:29:47.640Z,26.12
2023-04-17T00:32:14.604Z,26.26
2023-04-17T00:34:41.508Z,26.48
2023-04-17T00:37:08.403Z,26.07
2023-04-17T00:39:35.302Z,25.68
2023-04-17T00:42:02.204Z,25.37
2023-04-17T00:44:29.196Z,24.87
2023-04-17T00:46:57.030Z,25.47
2023-04-17T00:49:25.171Z,25.41
2023-04-17T00:51:52.670Z,25.66
2023-04-17T00:54:22.909Z,25.38
2023-04-17T00:56:51.617Z,25.30
2023-04-17T00:59:18.744Z,25.34
2023-04-17T01:01:46.744Z,25.60
2023-04-17T01:04:13.907Z,25.19
2023-04-17T01:06:40.965Z,25.26
2023-04-17T01:09:08.621Z,25.53
2023-04-17T01:11:35.506Z,26.69
2023-04-17T01:14:02.461Z,27.27
2023-04-17T01:16:29.526Z,26.51
2023-04-17T01:18:56.756Z,27.21
2023-04-17T01:21:25.421Z,27.74
2023-04-17T01:23:52.615Z,28.77
2023-04-17T01:26:22.919Z,29.67
2023-04-17T01:28:55.354Z,30.27
2023-04-17T01:31:26.458Z,30.36
2023-04-17T01:33:54.866Z,30.53
2023-04-17T01:36:22.028Z,30.37
2023-04-17T01:38:49.033Z,29.64
2023-04-17T01:41:16.015Z,28.44
2023-04-17T01:43:46.335Z,29.29
2023-04-17T01:46:13.606Z,30.54
2023-04-17T01:48:40.796Z,29.71
2023-04-17T01:51:07.810Z,30.10
2023-04-17T01:53:35.977Z,28.16
2023-04-17T01:56:02.920Z,28.09
2023-04-17T01:58:31.075Z,28.47
2023-04-17T02:00:58.205Z,29.79
2023-04-17T02:03:26.338Z,31.01
2023-04-17T02:05:53.805Z,30.81
2023-04-17T02:08:20.828Z,31.28
2023-04-17T02:10:47.687Z,29.32
2023-04-17T02:13:14.832Z,31.17
2023-04-17T02:15:42.137Z,31.04
2023-04-17T02:18:09.457Z,31.10
2023-04-17T02:20:37.349Z,30.08
2023-04-17T02:23:05.876Z,31.58
2023-04-17T02:25:33.454Z,31.70
2023-04-17T02:28:00.736Z,31.64
2023-04-17T02:30:28.030Z,31.21
2023-04-17T02:32:56.921Z,30.33
2023-04-17T02:35:25.972Z,31.21
2023-04-17T02:37:53.353Z,31.06
2023-04-17T02:40:22.958Z,29.87
2023-04-17T02:42:54.242Z,29.42
2023-04-17T02:45:21.358Z,29.00
2023-04-17T02:47:48.791Z,29.13
2023-04-17T02:50:16.213Z,29.18
2023-04-17T02:53:02.837Z,28.30
2023-04-17T02:55:30.014Z,27.88
2023-04-17T02:57:56.955Z,27.30
2023-04-17T03:00:24.110Z,26.57
2023-04-17T03:02:51.157Z,25.30
2023-04-17T03:05:18.920Z,25.22
2023-04-17T03:07:46.041Z,24.23
2023-04-17T03:10:13.719Z,23.33
2023-04-17T03:12:40.612Z,22.96
2023-04-17T03:15:08.956Z,22.16
2023-04-17T03:17:36.493Z,20.76
2023-04-17T03:20:04.024Z,19.60
2023-04-17T03:22:30.876Z,19.15
2023-04-17T03:24:57.904Z,19.26
2023-04-17T03:27:27.444Z,19.57
2023-04-17T03:29:55.209Z,18.97
2023-04-17T03:32:23.733Z,18.59
2023-04-17T03:34:51.564Z,18.20
2023-04-17T03:37:18.421Z,18.54
2023-04-17T03:39:45.889Z,18.37
2023-04-17T03:42:12.944Z,16.66
2023-04-17T03:44:40.024Z,16.12
2023-04-17T03:47:07.164Z,15.72
2023-04-17T03:49:34.216Z,15.03
2023-04-17T03:52:01.155Z,14.44
2023-04-17T03:54:28.189Z,14.43
2023-04-17T03:56:56.121Z,13.98
2023-04-17T03:59:23.720Z,13.91
2023-04-17T04:01:50.677Z,14.39
2023-04-17T04:04:20.762Z,15.89
2023-04-17T04:06:50.194Z,16.14
2023-04-17T04:09:20.037Z,16.64
2023-04-17T04:11:47.098Z,15.62
2023-04-17T04:14:14.086Z,15.79
2023-04-17T04:16:40.984Z,15.83
2023-04-17T04:19:12.076Z,15.81
2023-04-17T04:21:58.016Z,16.70
2023-04-17T04:24:32.744Z,16.81
2023-04-17T04:26:59.941Z,17.00
2023-04-17T04:29:26.802Z,17.28
2023-04-17T04:31:59.169Z,17.79
2023-04-17T04:34:32.248Z,17.24
2023-04-17T04:36:59.249Z,17.35
2023-04-17T04:39:45.338Z,17.59
2023-04-17T04:42:14.827Z,17.77
2023-04-17T04:45:05.222Z,17.81
2023-04-17T04:47:33.474Z,17.49
2023-04-17T04:50:00.637Z,16.98
2023-04-17T04:52:27.809Z,17.36
2023-04-17T04:54:58.555Z,17.00
2023-04-17T04:57:26.089Z,16.62
2023-04-17T04:59:58.331Z,16.43
2023-04-17T05:02:45.539Z,16.49
2023-04-17T05:05:12.659Z,16.08
2023-04-17T05:07:39.604Z,16.56
2023-04-17T05:10:10.472Z,16.71
2023-04-17T05:12:41.827Z,16.30
2023-04-17T05:15:10.933Z,16.71
2023-04-17T05:17:37.944Z,17.02
2023-04-17T05:20:06.488Z,17.08
2023-04-17T05:22:35.928Z,16.90
2023-04-17T05:25:11.239Z,17.57
2023-04-17T05:27:38.338Z,17.54
2023-04-17T05:30:06.630Z,17.82
2023-04-17T05:32:33.733Z,17.44
2023-04-17T05:35:08.264Z,15.71
2023-04-17T05:37:37.332Z,15.41
2023-04-17T05:40:04.528Z,15.76
2023-04-17T05:42:31.462Z,15.73
2023-04-17T05:44:58.401Z,15.46
2023-04-17T05:47:25.361Z,14.38
2023-04-17T05:49:53.124Z,14.17
2023-04-17T05:52:20.118Z,14.73
2023-04-17T05:54:47.795Z,15.89
2023-04-17T05:57:14.965Z,16.04
2023-04-17T05:59:42.417Z,16.58
2023-04-17T06:02:10.486Z,16.81
2023-04-17T06:04:37.623Z,16.40
2023-04-17T06:07:05.430Z,16.55
2023-04-17T06:09:34.189Z,16.19
2023-04-17T06:12:01.114Z,15.30
2023-04-17T06:14:28.000Z,16.06
2023-04-17T06:16:55.173Z,15.42
2023-04-17T06:19:22.275Z,15.78
2023-04-17T06:21:49.324Z,14.59
2023-04-17T06:24:16.395Z,14.77
2023-04-17T06:26:47.394Z,15.49
2023-04-17T06:29:14.336Z,14.40
2023-04-17T06:31:42.404Z,14.22
2023-04-17T06:34:09.460Z,13.89
2023-04-17T06:36:41.113Z,13.87
2023-04-17T06:39:08.035Z,13.78
2023-04-17T06:41:35.070Z,13.53
2023-04-17T06:44:02.083Z,13.18
2023-04-17T06:46:44.519Z,13.09
2023-04-17T06:49:11.906Z,12.26
2023-04-17T06:51:39.104Z,11.87
2023-04-17T06:54:06.094Z,11.95
2023-04-17T06:56:32.964Z,11.89
2023-04-17T06:59:01.808Z,12.50
2023-04-17T07:01:29.823Z,12.38
2023-04-17T07:03:57.006Z,12.09
2023-04-17T07:06:23.867Z,10.31
2023-04-17T07:08:50.734Z,10.72
2023-04-17T07:11:17.639Z,10.89
2023-04-17T07:13:44.423Z,10.26
2023-04-17T07:16:12.068Z,10.18
2023-04-17T07:18:39.036Z,10.03
2023-04-17T07:21:05.922Z,10.35
2023-04-17T07:23:32.720Z,10.47
2023-04-17T07:25:59.592Z,9.82
2023-04-17T07:28:26.484Z,9.86
2023-04-17T07:30:53.586Z,9.86
2023-04-17T07:33:21.177Z,10.63
2023-04-17T07:35:48.099Z,9.07
2023-04-17T07:38:14.893Z,9.48
2023-04-17T07:40:41.700Z,9.15
2023-04-17T07:43:08.549Z,8.91
2023-04-17T07:45:35.416Z,9.00
2023-04-17T07:48:02.791Z,9.18
2023-04-17T07:50:29.775Z,8.93
2023-04-17T07:52:56.718Z,8.64
2023-04-17T07:55:23.621Z,9.05
2023-04-17T07:57:50.473Z,9.39
2023-04-17T08:00:17.749Z,9.76
2023-04-17T08:02:44.981Z,9.26
2023-04-17T08:05:12.048Z,9.86
2023-04-17T08:07:39.091Z,9.59
2023-04-17T08:10:06.551Z,9.64
2023-04-17T08:12:33.502Z,9.73
2023-04-17T08:15:00.396Z,9.89
2023-04-17T08:17:27.308Z,9.79
2023-04-17T08:19:54.138Z,9.46
2023-04-17T08:22:21.002Z,9.92
2023-04-17T08:24:48.499Z,9.50
2023-04-17T08:27:15.320Z,10.11
2023-04-17T08:29:43.709Z,10.39
2023-04-17T08:32:14.138Z,10.26
2023-04-17T08:34:44.391Z,10.09
2023-04-17T08:37:11.176Z,10.39
2023-04-17T08:39:38.130Z,10.44
2023-04-17T08:42:11.906Z,10.48
2023-04-17T08:44:41.731Z,10.13
2023-04-17T08:47:08.650Z,10.37
2023-04-17T08:49:36.416Z,10.17
2023-04-17T08:52:04.552Z,10.44
2023-04-17T08:54:32.669Z,10.38
2023-04-17T08:57:03.085Z,10.58
2023-04-17T08:59:30.921Z,10.28
2023-04-17T09:02:08.479Z,10.32
2023-04-17T09:04:41.015Z,10.00
2023-04-17T09:07:13.046Z,9.79
2023-04-17T09:09:53.986Z,10.13
2023-04-17T09:12:25.749Z,10.09
2023-04-17T09:14:52.836Z,9.71
2023-04-17T09:17:20.812Z,9.53
2023-04-17T09:20:07.956Z,10.06
2023-04-17T09:22:36.702Z,9.61
2023-04-17T09:25:04.156Z,9.38
2023-04-17T09:27:31.132Z,9.53
2023-04-17T09:30:05.956Z,9.76
2023-04-17T09:32:33.704Z,9.92
2023-04-17T09:35:03.458Z,9.86
2023-04-17T09:37:53.022Z,9.62
2023-04-17T09:40:21.776Z,9.40
2023-04-17T09:43:09.660Z,9.34
2023-04-17T09:45:40.499Z,9.19
2023-04-17T09:48:13.160Z,10.17
2023-04-17T09:50:40.324Z,10.02
2023-04-17T09:53:08.552Z,10.39
2023-04-17T09:55:35.492Z,10.08
2023-04-17T09:58:07.673Z,9.79
2023-04-17T10:00:36.008Z,10.23
2023-04-17T10:03:05.207Z,9.35
2023-04-17T10:05:32.289Z,8.75
2023-04-17T10:08:04.283Z,9.62
2023-04-17T10:10:32.556Z,10.30
2023-04-17T10:13:02.717Z,9.73
2023-04-17T10:15:33.427Z,9.82
2023-04-17T10:18:20.628Z,10.63
2023-04-17T10:20:48.783Z,9.88
2023-04-17T10:23:31.698Z,9.69
2023-04-17T10:26:30.065Z,10.73
2023-04-17T10:28:57.180Z,9.68
2023-04-17T10:32:03.022Z,10.41
2023-04-17T10:34:37.850Z,10.33
2023-04-17T10:37:05.132Z,10.38
2023-04-17T10:40:01.037Z,10.40
2023-04-17T10:43:16.441Z,10.18
2023-04-17T10:46:12.409Z,10.77
2023-04-17T10:48:47.511Z,9.71
2023-04-17T10:51:23.587Z,9.75
2023-04-17T10:54:01.541Z,9.98
2023-04-17T10:56:40.694Z,9.36
2023-04-17T10:59:13.028Z,9.45
2023-04-17T11:01:57.662Z,9.63
2023-04-17T11:04:29.838Z,9.84
2023-04-17T11:06:57.189Z,10.15
2023-04-17T11:09:26.114Z,10.37
2023-04-17T11:11:53.121Z,9.89
2023-04-17T11:14:23.112Z,9.96
2023-04-17T11:16:51.724Z,9.78
2023-04-17T11:19:20.878Z,9.51
2023-04-17T11:21:49.236Z,10.33
2023-04-17T11:24:25.764Z,10.45
2023-04-17T11:26:55.968Z,11.41
2023-04-17T11:29:23.961Z,11.33
2023-04-17T11:32:11.832Z,10.77
2023-04-17T11:34:57.239Z,10.27
2023-04-17T11:37:24.264Z,10.11
2023-04-17T11:40:09.928Z,9.46
2023-04-17T11:42:44.923Z,9.80
2023-04-17T11:45:12.322Z,9.82
2023-04-17T11:47:40.248Z,9.92
2023-04-17T11:50:07.490Z,10.13
2023-04-17T11:52:34.323Z,10.03
2023-04-17T11:55:01.207Z,10.12
2023-04-17T11:57:28.202Z,10.22
2023-04-17T11:59:55.251Z,10.17
2023-04-17T12:02:32.658Z,10.01
2023-04-17T12:05:16.273Z,9.99
2023-04-17T12:07:43.350Z,10.88
2023-04-17T12:10:10.289Z,10.52
2023-04-17T12:12:37.382Z,10.92
2023-04-17T12:15:04.703Z,10.64
2023-04-17T12:17:31.584Z,10.50
2023-04-17T12:19:58.393Z,10.41
2023-04-17T12:22:43.993Z,10.27
2023-04-17T12:25:10.847Z,10.35
2023-04-17T12:27:37.855Z,10.15
2023-04-17T12:30:05.393Z,10.23
2023-04-17T12:32:32.353Z,10.38
2023-04-17T12:34:59.294Z,10.83
2023-04-17T12:37:26.143Z,10.55
2023-04-17T12:39:55.664Z,10.32
2023-04-17T12:42:22.495Z,10.18
2023-04-17T12:44:51.450Z,10.23
2023-04-17T12:47:18.386Z,9.69
2023-04-17T12:49:45.329Z,10.50
2023-04-17T12:52:12.231Z,10.00
2023-04-17T12:54:39.120Z,9.60
2023-04-17T12:57:05.969Z,9.34
2023-04-17T12:59:33.252Z,9.84
2023-04-17T13:02:00.793Z,9.61
2023-04-17T13:04:52.548Z,10.22
2023-04-17T13:07:20.430Z,9.76
2023-04-17T13:09:47.320Z,10.39
2023-04-17T13:12:14.285Z,9.72
2023-04-17T13:14:41.975Z,9.86
2023-04-17T13:17:09.245Z,10.37
2023-04-17T13:19:36.372Z,10.32
2023-04-17T13:22:03.308Z,10.34
2023-04-17T13:24:30.210Z,10.02
2023-04-17T13:26:57.317Z,10.32
2023-04-17T13:29:24.906Z,10.26
2023-04-17T13:31:52.245Z,10.47
2023-04-17T13:34:22.643Z,11.00
2023-04-17T13:36:49.680Z,11.32
2023-04-17T13:39:24.809Z,10.83
2023-04-17T13:41:51.816Z,11.00
2023-04-17T13:44:18.743Z,11.44
2023-04-17T13:46:48.702Z,11.29
2023-04-17T13:49:15.749Z,11.13
2023-04-17T13:51:42.676Z,11.18
2023-04-17T13:54:09.594Z,11.69
2023-04-17T13:56:36.470Z,11.67
2023-04-17T13:59:10.522Z,11.59
2023-04-17T14:01:38.091Z,11.96
2023-04-17T14:04:05.371Z,11.68
2023-04-17T14:06:33.636Z,12.43
2023-04-17T14:09:00.822Z,12.10
2023-04-17T14:11:27.934Z,12.33
2023-04-17T14:13:56.876Z,12.08
2023-04-17T14:16:24.009Z,12.15
2023-04-17T14:18:55.156Z,12.10
2023-04-17T14:21:23.719Z,12.03
2023-04-17T14:23:50.615Z,11.91
2023-04-17T14:26:17.501Z,12.39
2023-04-17T14:28:44.462Z,12.43
2023-04-17T14:31:14.360Z,13.26
2023-04-17T14:34:04.992Z,13.51
2023-04-17T14:36:33.886Z,13.57
2023-04-17T14:39:00.762Z,12.89
2023-04-17T14:41:27.850Z,13.44
2023-04-17T14:43:54.725Z,13.19
2023-04-17T14:46:21.722Z,13.49
2023-04-17T14:48:55.270Z,13.45
2023-04-17T14:51:24.232Z,13.51
2023-04-17T14:53:53.024Z,13.56
2023-04-17T14:56:20.514Z,13.19
2023-04-17T14:58:47.682Z,13.84
2023-04-17T15:01:14.660Z,14.09
2023-04-17T15:03:46.823Z,13.65
2023-04-17T15:06:15.570Z,14.05
2023-04-17T15:08:42.798Z,13.98
2023-04-17T15:11:12.660Z,13.63
2023-04-17T15:13:44.030Z,13.12
2023-04-17T15:16:14.976Z,13.75
2023-04-17T15:18:43.962Z,13.43
2023-04-17T15:21:14.886Z,13.58
2023-04-17T15:24:00.609Z,13.95
2023-04-17T15:26:27.536Z,13.90
2023-04-17T15:28:59.472Z,13.61
2023-04-17T15:31:26.741Z,14.05
2023-04-17T15:33:53.620Z,13.97
2023-04-17T15:36:31.939Z,14.20
2023-04-17T15:38:58.906Z,14.71
2023-04-17T15:41:28.594Z,14.63
2023-04-17T15:43:56.093Z,14.73
2023-04-17T15:46:24.860Z,14.71
2023-04-17T15:49:22.048Z,14.72
2023-04-17T15:51:46.419Z,14.71
2023-04-17T15:54:14.268Z,15.01
2023-04-17T15:56:45.143Z,14.96
2023-04-17T15:59:12.425Z,15.22
2023-04-17T16:01:42.078Z,15.17
2023-04-17T16:04:09.316Z,15.10
2023-04-17T16:06:36.516Z,15.07
2023-04-17T16:09:04.013Z,15.50
2023-04-17T16:11:32.714Z,15.42
2023-04-17T16:14:01.512Z,15.42
2023-04-17T16:16:33.374Z,15.46
2023-04-17T16:19:02.947Z,15.73
2023-04-17T16:21:30.006Z,15.34
2023-04-17T16:23:56.855Z,15.03
2023-04-17T16:26:24.505Z,15.82
2023-04-17T16:28:53.890Z,15.60
2023-04-17T16:31:20.948Z,15.99
2023-04-17T16:33:48.014Z,15.73
2023-04-17T16:36:14.795Z,15.93
2023-04-17T16:38:41.740Z,15.72
2023-04-17T16:41:08.676Z,16.21
2023-04-17T16:43:35.589Z,16.44
2023-04-17T16:46:10.929Z,15.83
2023-04-17T16:48:46.023Z,16.54
2023-04-17T16:51:16.281Z,16.05
2023-04-17T16:53:43.206Z,16.17
2023-04-17T16:56:10.333Z,16.33
2023-04-17T16:58:37.409Z,16.14
2023-04-17T17:01:04.333Z,16.07
2023-04-17T17:03:31.317Z,16.16
2023-04-17T17:06:19.713Z,16.34
2023-04-17T17:08:46.931Z,16.26
2023-04-17T17:11:18.218Z,16.32
2023-04-17T17:13:49.892Z,16.52
2023-04-17T17:17:06.960Z,16.32
2023-04-17T17:19:08.471Z,16.54
2023-04-17T17:21:35.310Z,16.52
2023-04-17T17:24:02.253Z,16.53
2023-04-17T17:26:29.178Z,16.55
2023-04-17T17:28:56.204Z,16.42
2023-04-17T17:31:23.210Z,16.62
2023-04-17T17:33:52.955Z,17.00
2023-04-17T17:36:20.117Z,16.76
2023-04-17T17:38:47.420Z,16.66
2023-04-17T17:41:14.403Z,16.99
2023-04-17T17:43:41.382Z,17.01
2023-04-17T17:46:08.301Z,16.91
2023-04-17T17:48:35.197Z,17.07
2023-04-17T17:51:02.181Z,17.16
2023-04-17T17:53:29.185Z,17.22
2023-04-17T17:55:56.995Z,17.24
2023-04-17T17:58:24.614Z,17.17
2023-04-17T18:00:51.767Z,17.31
2023-04-17T18:03:24.422Z,17.12
2023-04-17T18:06:14.215Z,17.41
2023-04-17T18:08:42.236Z,17.20
2023-04-17T18:11:14.423Z,17.64
2023-04-17T18:13:46.173Z,17.16
2023-04-17T18:16:13.183Z,17.56
2023-04-17T18:18:40.160Z,17.73
2023-04-17T18:21:10.845Z,18.32
2023-04-17T18:23:37.708Z,17.83
2023-04-17T18:26:04.679Z,17.79
2023-04-17T18:28:33.033Z,17.41
2023-04-17T18:31:02.354Z,18.00
2023-04-17T18:33:30.282Z,18.10
2023-04-17T18:35:57.251Z,18.59
2023-04-17T18:38:24.395Z,18.69
2023-04-17T18:40:54.984Z,18.47
2023-04-17T18:43:21.858Z,18.32
2023-04-17T18:45:48.642Z,18.37
2023-04-17T18:48:15.511Z,18.39
2023-04-17T18:50:46.256Z,18.63
2023-04-17T18:53:18.575Z,19.03
2023-04-17T18:55:49.324Z,18.79
2023-04-17T18:58:16.259Z,18.76
2023-04-17T19:00:43.116Z,18.90
2023-04-17T19:03:13.341Z,19.29
2023-04-17T19:05:40.274Z,18.87
2023-04-17T19:08:07.163Z,19.01
2023-04-17T19:10:34.072Z,19.49
2023-04-17T19:13:00.959Z,19.06
2023-04-17T19:15:33.273Z,19.47
2023-04-17T19:18:02.336Z,19.15
2023-04-17T19:23:12.768Z,19.75
2023-04-17T19:25:40.072Z,19.80
2023-04-17T19:28:11.847Z,19.09
2023-04-17T19:30:57.294Z,19.63
2023-04-17T19:33:26.900Z,19.55
2023-04-17T19:35:57.442Z,19.55
2023-04-17T19:38:25.230Z,19.80
2023-04-17T19:41:17.924Z,19.77
2023-04-17T19:43:45.958Z,20.37
2023-04-17T19:46:16.433Z,19.89
2023-04-17T19:48:50.875Z,19.62
2023-04-17T19:51:20.339Z,19.92
2023-04-17T19:53:47.364Z,20.26
2023-04-17T19:56:14.326Z,20.66
2023-04-17T19:58:43.792Z,20.51
2023-04-17T20:01:10.831Z,20.00
2023-04-17T20:03:40.685Z,20.69
2023-04-17T20:06:08.080Z,20.47
2023-04-17T20:08:35.228Z,20.49
2023-04-17T20:11:04.610Z,20.47
2023-04-17T20:13:50.117Z,20.41
2023-04-17T20:16:19.979Z,20.72
2023-04-17T20:18:48.100Z,20.55
2023-04-17T20:21:14.937Z,20.45
2023-04-17T20:23:47.550Z,20.67
2023-04-17T20:26:15.214Z,20.73
2023-04-17T20:28:45.039Z,20.71
2023-04-17T20:31:12.713Z,20.42
2023-04-17T20:33:39.677Z,21.38
2023-04-17T20:36:25.190Z,20.88
2023-04-17T20:38:54.229Z,21.13
2023-04-17T20:41:25.242Z,21.10
2023-04-17T20:44:04.336Z,20.60
2023-04-17T20:46:31.361Z,20.78
2023-04-17T20:48:58.372Z,21.35
2023-04-17T20:51:25.838Z,21.10
2023-04-17T20:53:53.119Z,20.72
2023-04-17T20:56:22.886Z,20.84
2023-04-17T20:58:52.066Z,20.68
2023-04-17T21:01:19.003Z,21.43
2023-04-17T21:03:51.847Z,21.00
2023-04-17T21:06:18.844Z,21.36
2023-04-17T21:08:48.891Z,21.80
2023-04-17T21:11:15.893Z,21.18
2023-04-17T21:13:42.730Z,21.36
2023-04-17T21:16:13.481Z,21.20
2023-04-17T21:18:42.278Z,21.29
2023-04-17T21:21:10.223Z,21.04
2023-04-17T21:23:41.563Z,21.54
2023-04-17T21:26:10.485Z,21.35
2023-04-17T21:28:37.405Z,21.20
2023-04-17T21:31:13.607Z,21.82
2023-04-17T21:33:40.622Z,21.59
2023-04-17T21:36:07.652Z,21.65
2023-04-17T21:38:34.611Z,21.81
2023-04-17T21:41:01.417Z,21.91
2023-04-17T21:43:28.396Z,21.94
2023-04-17T21:45:55.267Z,21.95
2023-04-17T21:48:22.335Z,21.82
2023-04-17T21:50:49.263Z,21.95
2023-04-17T21:53:16.283Z,22.50
2023-04-17T21:55:43.123Z,22.30
2023-04-17T21:58:10.052Z,22.68
2023-04-17T22:00:36.989Z,22.74
2023-04-17T22:03:04.137Z,23.00
2023-04-17T22:05:31.028Z,22.79
2023-04-17T22:07:58.057Z,22.79
2023-04-17T22:10:25.052Z,23.14
2023-04-17T22:12:52.084Z,23.03
2023-04-17T22:15:19.107Z,23.13
2023-04-17T22:17:46.172Z,23.56
2023-04-17T22:20:13.279Z,23.51
2023-04-17T22:22:40.359Z,23.40
2023-04-17T22:25:07.646Z,23.38
2023-04-17T22:27:34.531Z,23.71
2023-04-17T22:30:01.440Z,23.74
2023-04-17T22:32:28.401Z,23.91
2023-04-17T22:34:55.513Z,23.96
2023-04-17T22:37:22.543Z,24.47
2023-04-17T22:39:49.556Z,23.77
2023-04-17T22:42:16.614Z,23.92
2023-04-17T22:44:44.059Z,24.45
2023-04-17T22:47:10.913Z,24.63
2023-04-17T22:49:37.783Z,24.94
2023-04-17T22:52:05.607Z,24.23
2023-04-17T22:54:33.061Z,24.82
2023-04-17T22:57:00.325Z,24.89
2023-04-17T22:59:27.261Z,25.10
2023-04-17T23:01:54.358Z,25.55
2023-04-17T23:04:23.114Z,25.63
2023-04-17T23:06:50.198Z,26.11
2023-04-17T23:09:17.051Z,26.16
2023-04-17T23:11:43.988Z,26.20
2023-04-17T23:14:11.127Z,25.98
2023-04-17T23:16:38.243Z,26.40
2023-04-17T23:19:05.100Z,26.31
2023-04-17T23:21:32.130Z,26.74
2023-04-17T23:23:58.950Z,26.66
2023-04-17T23:26:25.918Z,26.80
2023-04-17T23:28:52.851Z,27.21
2023-04-17T23:31:19.851Z,27.10
2023-04-17T23:33:46.787Z,26.92
2023-04-17T23:36:13.755Z,27.22
2023-04-17T23:38:40.710Z,27.44
2023-04-17T23:41:07.691Z,27.45
2023-04-17T23:43:34.589Z,27.74
2023-04-17T23:46:01.615Z,28.11
2023-04-17T23:48:28.489Z,28.17
2023-04-17T23:50:55.647Z,28.32
2023-04-17T23:53:22.462Z,28.55
2023-04-17T23:55:49.323Z,28.56
2023-04-17T23:58:16.159Z,28.59
